Boke Airport


Codes: GUOK/BKJ
Name: Boke Airport
City: Boke
Country: Guinea
Elevation: 164 ft.

Photos at Boke Airport


   Photos courtesy of SpottingLog. You can add your own sightings and photos by signing up for a free trial today.



No photos found.

Weather at Boke Airport


Time (UTC)DescriptionTempratureWindCloud coverageVisibilityPressureHumidity
21-Jun-2024 12:00Scattered Clouds28°C4 mph, SW27%10000m1014hPa71%
21-Jun-2024 15:00Broken Clouds31°C4 mph, W51%10000m1012hPa63%
21-Jun-2024 18:00Light Rain29°C4 mph, SW79%10000m1011hPa73%
21-Jun-2024 21:00Light Rain25°C4 mph, SW74%10000m1012hPa91%
22-Jun-2024 00:00Light Rain25°C2 mph, SW87%10000m1014hPa92%
22-Jun-2024 03:00Light Rain24°C2 mph, SW100%10000m1012hPa95%
22-Jun-2024 06:00Overcast Clouds24°C0 mph, S100%10000m1013hPa94%
22-Jun-2024 09:00Overcast Clouds27°C4 mph, SW89%10000m1014hPa83%
22-Jun-2024 12:00Overcast Clouds30°C4 mph, SW89%10000m1014hPa69%
22-Jun-2024 15:00Light Rain32°C7 mph, SW75%10000m1011hPa61%
22-Jun-2024 18:00Light Rain28°C7 mph, SW87%10000m1012hPa77%
22-Jun-2024 21:00Light Rain25°C7 mph, SW100%10000m1013hPa90%
23-Jun-2024 00:00Overcast Clouds25°C2 mph, S100%10000m1014hPa93%
23-Jun-2024 03:00Light Rain25°C2 mph, E97%10000m1013hPa95%
23-Jun-2024 06:00Moderate Rain24°C0 mph, SE99%10000m1012hPa95%
23-Jun-2024 09:00Overcast Clouds25°C4 mph, NE100%10000m1014hPa89%
23-Jun-2024 12:00Overcast Clouds30°C2 mph, SW100%10000m1013hPa65%
23-Jun-2024 15:00Overcast Clouds33°C4 mph, SW92%10000m1011hPa54%
23-Jun-2024 18:00Broken Clouds30°C9 mph, SW68%10000m1011hPa69%
23-Jun-2024 21:00Light Rain25°C4 mph, SW99%10000m1013hPa92%
24-Jun-2024 00:00Overcast Clouds25°C2 mph, S99%10000m1013hPa95%
24-Jun-2024 03:00Light Rain26°C2 mph, S100%10000m1012hPa94%
24-Jun-2024 06:00Light Rain25°C4 mph, SW100%10000m1012hPa94%
24-Jun-2024 09:00Overcast Clouds27°C4 mph, SW100%10000m1013hPa85%
24-Jun-2024 12:00Light Rain30°C7 mph, SW100%10000m1013hPa71%
24-Jun-2024 15:00Light Rain31°C4 mph, SW93%10000m1011hPa66%
24-Jun-2024 18:00Moderate Rain28°C7 mph, SW95%10000m1011hPa81%
24-Jun-2024 21:00Overcast Clouds26°C4 mph, SW100%10000m1013hPa91%
25-Jun-2024 00:00Overcast Clouds25°C4 mph, S91%10000m1014hPa95%
25-Jun-2024 03:00Light Rain24°C2 mph, S100%10000m1012hPa97%
25-Jun-2024 06:00Overcast Clouds24°C2 mph, S98%10000m1012hPa97%
25-Jun-2024 09:00Broken Clouds28°C2 mph, SW62%10000m1014hPa82%
25-Jun-2024 12:00Light Rain31°C4 mph, SW67%10000m1013hPa64%
25-Jun-2024 15:00Moderate Rain30°C7 mph, SW90%10000m1011hPa71%
25-Jun-2024 18:00Light Rain28°C9 mph, SW94%10000m1010hPa81%
25-Jun-2024 21:00Light Rain26°C4 mph, SW100%10000m1013hPa91%
26-Jun-2024 00:00Moderate Rain25°C2 mph, SW100%10000m1013hPa96%
26-Jun-2024 03:00Overcast Clouds24°C2 mph, SW99%10000m1012hPa97%
26-Jun-2024 06:00Light Rain24°C2 mph, NW100%10000m1013hPa96%
26-Jun-2024 09:00Light Rain25°C4 mph, SW100%10000m1012hPa94%